Terminal Aerodrome Forecast
Issued by NWS

Home | Current Version | Previous Version | Text Only | Print | Product List | Glossary On
Versions: 1 2 3 4 5 6 7 8 9 10 11 12 13 14 15
000
FTUS45 KRIW 032100 AAA
TAFLND
TAF AMD
KLND 032128Z 0321/0418 VRB15G25KT P6SM VCTS SCT060CB BKN100
      TEMPO 0321/0324 -TSRA BKN040CB
     FM040300 VRB10G15KT P6SM VCSH BKN070
     FM040800 VRB05KT P6SM SCT080 BKN150=

USA.gov is the U.S. government's official web portal to all federal, state and local government web resources and services.